sensor_id;sensor_type;location;lat;lon;timestamp;P1;durP1;ratioP1;P2;durP2;ratioP2
16669;SDS011;8448;52.034;5.158;2022-12-18T00:02:26;75.77;;;28.50;;
16669;SDS011;8448;52.034;5.158;2022-12-18T00:04:55;77.23;;;29.03;;
16669;SDS011;8448;52.034;5.158;2022-12-18T00:07:25;77.03;;;29.37;;
16669;SDS011;8448;52.034;5.158;2022-12-18T00:09:53;81.43;;;29.20;;
16669;SDS011;8448;52.034;5.158;2022-12-18T00:12:20;77.80;;;29.17;;
16669;SDS011;8448;52.034;5.158;2022-12-18T00:14:47;99.87;;;30.03;;
16669;SDS011;8448;52.034;5.158;2022-12-18T00:17:15;89.47;;;29.93;;
16669;SDS011;8448;52.034;5.158;2022-12-18T00:19:42;87.10;;;29.17;;
16669;SDS011;8448;52.034;5.158;2022-12-18T00:22:11;77.73;;;30.37;;
16669;SDS011;8448;52.034;5.158;2022-12-18T00:24:38;87.53;;;29.87;;
16669;SDS011;8448;52.034;5.158;2022-12-18T00:27:05;80.77;;;29.83;;
16669;SDS011;8448;52.034;5.158;2022-12-18T00:29:33;86.47;;;29.13;;
16669;SDS011;8448;52.034;5.158;2022-12-18T00:32:00;82.60;;;29.30;;
16669;SDS011;8448;52.034;5.158;2022-12-18T00:34:28;84.50;;;29.83;;
16669;SDS011;8448;52.034;5.158;2022-12-18T00:36:55;80.67;;;29.10;;
16669;SDS011;8448;52.034;5.158;2022-12-18T00:39:24;100.87;;;30.77;;
16669;SDS011;8448;52.034;5.158;2022-12-18T00:41:51;94.47;;;31.50;;
16669;SDS011;8448;52.034;5.158;2022-12-18T00:44:36;89.43;;;30.77;;
16669;SDS011;8448;52.034;5.158;2022-12-18T00:47:03;85.43;;;31.07;;
16669;SDS011;8448;52.034;5.158;2022-12-18T00:49:32;83.43;;;30.03;;
16669;SDS011;8448;52.034;5.158;2022-12-18T00:51:59;105.03;;;31.43;;
16669;SDS011;8448;52.034;5.158;2022-12-18T00:54:28;95.67;;;31.17;;
16669;SDS011;8448;52.034;5.158;2022-12-18T00:56:55;99.43;;;31.77;;
16669;SDS011;8448;52.034;5.158;2022-12-18T00:59:22;86.27;;;30.73;;
16669;SDS011;8448;52.034;5.158;2022-12-18T01:01:50;83.00;;;29.70;;
16669;SDS011;8448;52.034;5.158;2022-12-18T01:04:19;122.87;;;31.77;;
16669;SDS011;8448;52.034;5.158;2022-12-18T01:06:46;91.90;;;32.40;;
16669;SDS011;8448;52.034;5.158;2022-12-18T01:09:14;104.33;;;30.57;;
16669;SDS011;8448;52.034;5.158;2022-12-18T01:11:43;88.30;;;29.90;;
16669;SDS011;8448;52.034;5.158;2022-12-18T01:14:10;114.07;;;30.90;;
16669;SDS011;8448;52.034;5.158;2022-12-18T01:16:37;108.37;;;31.07;;
16669;SDS011;8448;52.034;5.158;2022-12-18T01:19:05;109.00;;;31.90;;
16669;SDS011;8448;52.034;5.158;2022-12-18T01:21:32;85.30;;;29.50;;
16669;SDS011;8448;52.034;5.158;2022-12-18T01:24:03;95.10;;;36.92;;
16669;SDS011;8448;52.034;5.158;2022-12-18T01:26:30;93.43;;;33.63;;
16669;SDS011;8448;52.034;5.158;2022-12-18T01:28:59;90.47;;;32.00;;
16669;SDS011;8448;52.034;5.158;2022-12-18T01:31:28;95.13;;;32.87;;
16669;SDS011;8448;52.034;5.158;2022-12-18T01:33:56;96.53;;;32.07;;
16669;SDS011;8448;52.034;5.158;2022-12-18T01:36:26;96.27;;;32.93;;
16669;SDS011;8448;52.034;5.158;2022-12-18T01:38:55;78.00;;;30.80;;
16669;SDS011;8448;52.034;5.158;2022-12-18T01:41:23;87.83;;;30.20;;
16669;SDS011;8448;52.034;5.158;2022-12-18T01:43:52;82.87;;;31.17;;
16669;SDS011;8448;52.034;5.158;2022-12-18T01:46:26;83.60;;;30.60;;
16669;SDS011;8448;52.034;5.158;2022-12-18T01:48:56;85.57;;;30.37;;
16669;SDS011;8448;52.034;5.158;2022-12-18T01:51:25;92.00;;;31.60;;
16669;SDS011;8448;52.034;5.158;2022-12-18T01:53:53;84.17;;;30.07;;
16669;SDS011;8448;52.034;5.158;2022-12-18T01:56:21;88.73;;;31.40;;
16669;SDS011;8448;52.034;5.158;2022-12-18T01:58:51;85.87;;;31.03;;
16669;SDS011;8448;52.034;5.158;2022-12-18T02:01:20;89.17;;;31.53;;
16669;SDS011;8448;52.034;5.158;2022-12-18T02:03:50;94.90;;;32.80;;
16669;SDS011;8448;52.034;5.158;2022-12-18T02:06:21;90.53;;;32.33;;
16669;SDS011;8448;52.034;5.158;2022-12-18T02:08:57;90.20;;;31.40;;
16669;SDS011;8448;52.034;5.158;2022-12-18T02:11:32;83.83;;;32.00;;
16669;SDS011;8448;52.034;5.158;2022-12-18T02:14:08;87.03;;;31.60;;
16669;SDS011;8448;52.034;5.158;2022-12-18T02:16:44;88.53;;;31.93;;
16669;SDS011;8448;52.034;5.158;2022-12-18T02:19:20;87.83;;;31.50;;
16669;SDS011;8448;52.034;5.158;2022-12-18T02:22:06;90.57;;;32.80;;
16669;SDS011;8448;52.034;5.158;2022-12-18T02:24:41;80.73;;;30.97;;
16669;SDS011;8448;52.034;5.158;2022-12-18T02:27:15;84.17;;;31.03;;
16669;SDS011;8448;52.034;5.158;2022-12-18T02:29:45;75.90;;;30.27;;
16669;SDS011;8448;52.034;5.158;2022-12-18T02:32:16;75.60;;;29.07;;
16669;SDS011;8448;52.034;5.158;2022-12-18T02:34:46;73.07;;;29.13;;
16669;SDS011;8448;52.034;5.158;2022-12-18T02:37:16;75.53;;;29.43;;
16669;SDS011;8448;52.034;5.158;2022-12-18T02:39:47;77.57;;;29.30;;
16669;SDS011;8448;52.034;5.158;2022-12-18T02:42:17;80.53;;;29.90;;
16669;SDS011;8448;52.034;5.158;2022-12-18T02:44:47;74.73;;;28.63;;
16669;SDS011;8448;52.034;5.158;2022-12-18T02:47:20;73.70;;;28.37;;
16669;SDS011;8448;52.034;5.158;2022-12-18T02:49:53;70.53;;;28.13;;
16669;SDS011;8448;52.034;5.158;2022-12-18T02:52:29;73.80;;;28.47;;
16669;SDS011;8448;52.034;5.158;2022-12-18T02:55:07;70.93;;;28.07;;
16669;SDS011;8448;52.034;5.158;2022-12-18T02:57:44;68.63;;;28.17;;
16669;SDS011;8448;52.034;5.158;2022-12-18T03:00:16;70.33;;;27.90;;
16669;SDS011;8448;52.034;5.158;2022-12-18T03:02:45;74.07;;;29.17;;
16669;SDS011;8448;52.034;5.158;2022-12-18T03:05:16;73.67;;;27.30;;
16669;SDS011;8448;52.034;5.158;2022-12-18T03:07:46;65.93;;;27.47;;
16669;SDS011;8448;52.034;5.158;2022-12-18T03:10:19;74.57;;;28.63;;
16669;SDS011;8448;52.034;5.158;2022-12-18T03:12:52;67.77;;;27.43;;
16669;SDS011;8448;52.034;5.158;2022-12-18T03:15:22;65.73;;;27.30;;
16669;SDS011;8448;52.034;5.158;2022-12-18T03:17:59;66.07;;;27.03;;
16669;SDS011;8448;52.034;5.158;2022-12-18T03:20:30;70.67;;;28.03;;
16669;SDS011;8448;52.034;5.158;2022-12-18T03:22:59;72.67;;;28.10;;
16669;SDS011;8448;52.034;5.158;2022-12-18T03:25:30;64.23;;;26.13;;
16669;SDS011;8448;52.034;5.158;2022-12-18T03:28:00;67.33;;;27.33;;
16669;SDS011;8448;52.034;5.158;2022-12-18T03:30:29;70.63;;;27.63;;
16669;SDS011;8448;52.034;5.158;2022-12-18T03:32:58;72.20;;;29.27;;
16669;SDS011;8448;52.034;5.158;2022-12-18T03:35:31;69.27;;;27.50;;
16669;SDS011;8448;52.034;5.158;2022-12-18T03:38:02;63.53;;;26.27;;
16669;SDS011;8448;52.034;5.158;2022-12-18T03:40:34;67.17;;;27.37;;
16669;SDS011;8448;52.034;5.158;2022-12-18T03:43:08;72.90;;;27.33;;
16669;SDS011;8448;52.034;5.158;2022-12-18T03:45:41;64.07;;;26.73;;
16669;SDS011;8448;52.034;5.158;2022-12-18T03:48:14;74.97;;;27.67;;
16669;SDS011;8448;52.034;5.158;2022-12-18T03:50:45;65.87;;;28.70;;
16669;SDS011;8448;52.034;5.158;2022-12-18T03:53:27;74.17;;;28.03;;
16669;SDS011;8448;52.034;5.158;2022-12-18T03:55:59;73.27;;;28.67;;
16669;SDS011;8448;52.034;5.158;2022-12-18T03:58:33;65.30;;;28.67;;
16669;SDS011;8448;52.034;5.158;2022-12-18T04:01:14;69.70;;;29.87;;
16669;SDS011;8448;52.034;5.158;2022-12-18T04:03:43;75.53;;;29.70;;
16669;SDS011;8448;52.034;5.158;2022-12-18T04:06:12;70.27;;;28.47;;
16669;SDS011;8448;52.034;5.158;2022-12-18T04:08:42;66.80;;;28.37;;
16669;SDS011;8448;52.034;5.158;2022-12-18T04:11:12;68.07;;;28.67;;
16669;SDS011;8448;52.034;5.158;2022-12-18T04:13:41;70.53;;;29.60;;
16669;SDS011;8448;52.034;5.158;2022-12-18T04:16:17;64.33;;;29.67;;
16669;SDS011;8448;52.034;5.158;2022-12-18T04:18:48;68.10;;;30.40;;
16669;SDS011;8448;52.034;5.158;2022-12-18T04:21:18;65.30;;;28.33;;
16669;SDS011;8448;52.034;5.158;2022-12-18T04:23:47;69.03;;;29.47;;
16669;SDS011;8448;52.034;5.158;2022-12-18T04:26:16;70.83;;;29.80;;
16669;SDS011;8448;52.034;5.158;2022-12-18T04:29:06;63.20;;;26.70;;
16669;SDS011;8448;52.034;5.158;2022-12-18T04:31:33;63.97;;;28.77;;
16669;SDS011;8448;52.034;5.158;2022-12-18T04:34:01;65.37;;;27.07;;
16669;SDS011;8448;52.034;5.158;2022-12-18T04:36:35;63.23;;;27.93;;
16669;SDS011;8448;52.034;5.158;2022-12-18T04:39:02;60.93;;;26.77;;
16669;SDS011;8448;52.034;5.158;2022-12-18T04:41:30;60.90;;;25.87;;
16669;SDS011;8448;52.034;5.158;2022-12-18T04:43:58;54.00;;;24.33;;
16669;SDS011;8448;52.034;5.158;2022-12-18T04:46:26;53.60;;;25.10;;
16669;SDS011;8448;52.034;5.158;2022-12-18T04:48:54;56.50;;;24.40;;
16669;SDS011;8448;52.034;5.158;2022-12-18T04:51:21;60.03;;;24.20;;
16669;SDS011;8448;52.034;5.158;2022-12-18T04:53:49;57.10;;;24.17;;
16669;SDS011;8448;52.034;5.158;2022-12-18T04:56:16;58.00;;;24.67;;
16669;SDS011;8448;52.034;5.158;2022-12-18T04:58:43;53.07;;;24.70;;
16669;SDS011;8448;52.034;5.158;2022-12-18T05:01:11;53.30;;;23.77;;
16669;SDS011;8448;52.034;5.158;2022-12-18T05:03:41;53.83;;;23.63;;
16669;SDS011;8448;52.034;5.158;2022-12-18T05:06:09;49.60;;;23.47;;
16669;SDS011;8448;52.034;5.158;2022-12-18T05:08:36;55.10;;;23.27;;
16669;SDS011;8448;52.034;5.158;2022-12-18T05:11:05;48.27;;;22.37;;
16669;SDS011;8448;52.034;5.158;2022-12-18T05:13:34;51.17;;;23.40;;
16669;SDS011;8448;52.034;5.158;2022-12-18T05:16:03;45.37;;;21.23;;
16669;SDS011;8448;52.034;5.158;2022-12-18T05:18:31;42.00;;;21.27;;
16669;SDS011;8448;52.034;5.158;2022-12-18T05:20:59;44.63;;;21.57;;
16669;SDS011;8448;52.034;5.158;2022-12-18T05:23:27;42.23;;;19.97;;
16669;SDS011;8448;52.034;5.158;2022-12-18T05:25:55;43.13;;;20.23;;
16669;SDS011;8448;52.034;5.158;2022-12-18T05:28:25;41.27;;;19.40;;
16669;SDS011;8448;52.034;5.158;2022-12-18T05:30:54;43.13;;;19.47;;
16669;SDS011;8448;52.034;5.158;2022-12-18T05:33:22;42.97;;;19.83;;
16669;SDS011;8448;52.034;5.158;2022-12-18T05:35:51;37.33;;;18.40;;
16669;SDS011;8448;52.034;5.158;2022-12-18T05:38:20;42.20;;;18.87;;
16669;SDS011;8448;52.034;5.158;2022-12-18T05:40:48;40.33;;;19.87;;
16669;SDS011;8448;52.034;5.158;2022-12-18T05:43:15;37.10;;;17.87;;
16669;SDS011;8448;52.034;5.158;2022-12-18T05:45:43;35.70;;;18.40;;
16669;SDS011;8448;52.034;5.158;2022-12-18T05:48:14;40.07;;;18.70;;
16669;SDS011;8448;52.034;5.158;2022-12-18T05:50:42;39.23;;;18.27;;
16669;SDS011;8448;52.034;5.158;2022-12-18T05:53:11;40.53;;;18.50;;
16669;SDS011;8448;52.034;5.158;2022-12-18T05:55:41;36.43;;;17.47;;
16669;SDS011;8448;52.034;5.158;2022-12-18T05:58:09;32.33;;;16.63;;
16669;SDS011;8448;52.034;5.158;2022-12-18T06:00:37;38.33;;;16.97;;
16669;SDS011;8448;52.034;5.158;2022-12-18T06:03:07;35.53;;;17.47;;
16669;SDS011;8448;52.034;5.158;2022-12-18T06:05:35;36.30;;;17.33;;
16669;SDS011;8448;52.034;5.158;2022-12-18T06:08:03;35.73;;;17.20;;
16669;SDS011;8448;52.034;5.158;2022-12-18T06:10:31;36.30;;;16.90;;
16669;SDS011;8448;52.034;5.158;2022-12-18T06:13:00;33.47;;;17.30;;
16669;SDS011;8448;52.034;5.158;2022-12-18T06:15:27;35.73;;;17.13;;
16669;SDS011;8448;52.034;5.158;2022-12-18T06:17:55;31.57;;;15.93;;
16669;SDS011;8448;52.034;5.158;2022-12-18T06:20:22;35.87;;;17.40;;
16669;SDS011;8448;52.034;5.158;2022-12-18T06:22:49;35.07;;;17.37;;
16669;SDS011;8448;52.034;5.158;2022-12-18T06:25:17;33.73;;;16.83;;
16669;SDS011;8448;52.034;5.158;2022-12-18T06:27:46;34.03;;;16.37;;
16669;SDS011;8448;52.034;5.158;2022-12-18T06:30:15;35.67;;;16.93;;
16669;SDS011;8448;52.034;5.158;2022-12-18T06:32:43;31.77;;;16.27;;
16669;SDS011;8448;52.034;5.158;2022-12-18T06:35:10;32.80;;;16.50;;
16669;SDS011;8448;52.034;5.158;2022-12-18T06:37:38;36.63;;;17.00;;
16669;SDS011;8448;52.034;5.158;2022-12-18T06:40:05;35.53;;;17.03;;
16669;SDS011;8448;52.034;5.158;2022-12-18T06:42:33;32.07;;;16.80;;
16669;SDS011;8448;52.034;5.158;2022-12-18T06:45:01;35.10;;;16.20;;
16669;SDS011;8448;52.034;5.158;2022-12-18T06:47:29;35.30;;;16.87;;
16669;SDS011;8448;52.034;5.158;2022-12-18T06:49:57;33.60;;;16.33;;
16669;SDS011;8448;52.034;5.158;2022-12-18T06:52:24;35.80;;;16.93;;
16669;SDS011;8448;52.034;5.158;2022-12-18T06:54:52;33.60;;;16.17;;
16669;SDS011;8448;52.034;5.158;2022-12-18T06:57:19;34.10;;;16.67;;
16669;SDS011;8448;52.034;5.158;2022-12-18T06:59:46;36.60;;;17.23;;
16669;SDS011;8448;52.034;5.158;2022-12-18T07:02:13;29.73;;;15.70;;
16669;SDS011;8448;52.034;5.158;2022-12-18T07:04:42;33.73;;;17.00;;
16669;SDS011;8448;52.034;5.158;2022-12-18T07:07:10;31.77;;;16.77;;
16669;SDS011;8448;52.034;5.158;2022-12-18T07:09:37;32.80;;;16.23;;
16669;SDS011;8448;52.034;5.158;2022-12-18T07:12:04;34.47;;;16.80;;
16669;SDS011;8448;52.034;5.158;2022-12-18T07:14:33;33.70;;;16.20;;
16669;SDS011;8448;52.034;5.158;2022-12-18T07:17:00;34.93;;;16.87;;
16669;SDS011;8448;52.034;5.158;2022-12-18T07:19:27;32.67;;;16.30;;
16669;SDS011;8448;52.034;5.158;2022-12-18T07:21:57;31.50;;;16.57;;
16669;SDS011;8448;52.034;5.158;2022-12-18T07:24:24;33.90;;;17.33;;
16669;SDS011;8448;52.034;5.158;2022-12-18T07:26:52;32.23;;;16.80;;
16669;SDS011;8448;52.034;5.158;2022-12-18T07:29:20;31.40;;;16.27;;
16669;SDS011;8448;52.034;5.158;2022-12-18T07:31:47;33.23;;;16.97;;
16669;SDS011;8448;52.034;5.158;2022-12-18T07:34:15;33.57;;;16.00;;
16669;SDS011;8448;52.034;5.158;2022-12-18T07:36:42;32.03;;;15.90;;
16669;SDS011;8448;52.034;5.158;2022-12-18T07:39:11;32.27;;;15.43;;
16669;SDS011;8448;52.034;5.158;2022-12-18T07:41:39;33.10;;;17.10;;
16669;SDS011;8448;52.034;5.158;2022-12-18T07:44:10;36.57;;;17.30;;
16669;SDS011;8448;52.034;5.158;2022-12-18T07:46:38;34.43;;;17.27;;
16669;SDS011;8448;52.034;5.158;2022-12-18T07:49:05;36.23;;;17.43;;
16669;SDS011;8448;52.034;5.158;2022-12-18T07:51:33;32.27;;;16.73;;
16669;SDS011;8448;52.034;5.158;2022-12-18T07:54:00;31.63;;;17.17;;
16669;SDS011;8448;52.034;5.158;2022-12-18T07:56:29;33.30;;;17.73;;
16669;SDS011;8448;52.034;5.158;2022-12-18T07:58:56;37.23;;;18.33;;
16669;SDS011;8448;52.034;5.158;2022-12-18T08:01:24;36.63;;;17.30;;
16669;SDS011;8448;52.034;5.158;2022-12-18T08:03:51;37.93;;;17.27;;
16669;SDS011;8448;52.034;5.158;2022-12-18T08:06:18;36.27;;;18.50;;
16669;SDS011;8448;52.034;5.158;2022-12-18T08:08:46;33.47;;;17.50;;
16669;SDS011;8448;52.034;5.158;2022-12-18T08:11:13;34.13;;;17.17;;
16669;SDS011;8448;52.034;5.158;2022-12-18T08:13:42;34.90;;;17.97;;
16669;SDS011;8448;52.034;5.158;2022-12-18T08:16:12;33.23;;;17.20;;
16669;SDS011;8448;52.034;5.158;2022-12-18T08:18:39;35.10;;;18.20;;
16669;SDS011;8448;52.034;5.158;2022-12-18T08:21:07;35.83;;;17.57;;
16669;SDS011;8448;52.034;5.158;2022-12-18T08:23:35;33.47;;;17.93;;
16669;SDS011;8448;52.034;5.158;2022-12-18T08:26:02;34.67;;;17.27;;
16669;SDS011;8448;52.034;5.158;2022-12-18T08:28:30;32.17;;;16.47;;
16669;SDS011;8448;52.034;5.158;2022-12-18T08:30:59;31.40;;;16.37;;
16669;SDS011;8448;52.034;5.158;2022-12-18T08:33:26;33.10;;;16.97;;
16669;SDS011;8448;52.034;5.158;2022-12-18T08:35:53;35.57;;;17.53;;
16669;SDS011;8448;52.034;5.158;2022-12-18T08:38:21;33.60;;;16.70;;
16669;SDS011;8448;52.034;5.158;2022-12-18T08:40:48;34.93;;;17.23;;
16669;SDS011;8448;52.034;5.158;2022-12-18T08:43:15;31.87;;;16.13;;
16669;SDS011;8448;52.034;5.158;2022-12-18T08:46:01;31.80;;;17.07;;
16669;SDS011;8448;52.034;5.158;2022-12-18T08:48:29;35.27;;;17.23;;
16669;SDS011;8448;52.034;5.158;2022-12-18T08:50:56;33.17;;;16.40;;
16669;SDS011;8448;52.034;5.158;2022-12-18T08:53:25;33.53;;;16.53;;
16669;SDS011;8448;52.034;5.158;2022-12-18T08:55:52;31.37;;;16.67;;
16669;SDS011;8448;52.034;5.158;2022-12-18T08:58:20;31.53;;;16.77;;
16669;SDS011;8448;52.034;5.158;2022-12-18T09:00:47;33.03;;;16.60;;
16669;SDS011;8448;52.034;5.158;2022-12-18T09:03:16;32.53;;;16.53;;
16669;SDS011;8448;52.034;5.158;2022-12-18T09:05:45;31.70;;;16.33;;
16669;SDS011;8448;52.034;5.158;2022-12-18T09:08:13;31.13;;;16.23;;
16669;SDS011;8448;52.034;5.158;2022-12-18T09:10:43;32.90;;;16.30;;
16669;SDS011;8448;52.034;5.158;2022-12-18T09:13:11;32.10;;;16.23;;
16669;SDS011;8448;52.034;5.158;2022-12-18T09:15:42;28.63;;;15.23;;
16669;SDS011;8448;52.034;5.158;2022-12-18T09:18:11;30.37;;;15.90;;
16669;SDS011;8448;52.034;5.158;2022-12-18T09:20:39;29.17;;;16.00;;
16669;SDS011;8448;52.034;5.158;2022-12-18T09:23:07;29.27;;;14.83;;
16669;SDS011;8448;52.034;5.158;2022-12-18T09:25:35;28.90;;;15.10;;
16669;SDS011;8448;52.034;5.158;2022-12-18T09:28:04;27.27;;;14.73;;
16669;SDS011;8448;52.034;5.158;2022-12-18T09:30:32;28.53;;;14.53;;
16669;SDS011;8448;52.034;5.158;2022-12-18T09:33:00;29.87;;;15.50;;
16669;SDS011;8448;52.034;5.158;2022-12-18T09:35:27;27.53;;;15.07;;
16669;SDS011;8448;52.034;5.158;2022-12-18T09:37:56;27.87;;;14.67;;
16669;SDS011;8448;52.034;5.158;2022-12-18T09:40:24;31.07;;;14.53;;
16669;SDS011;8448;52.034;5.158;2022-12-18T09:42:54;28.67;;;14.40;;
16669;SDS011;8448;52.034;5.158;2022-12-18T09:45:23;27.17;;;14.63;;
16669;SDS011;8448;52.034;5.158;2022-12-18T09:47:51;29.50;;;14.70;;
16669;SDS011;8448;52.034;5.158;2022-12-18T09:50:22;28.50;;;14.80;;
16669;SDS011;8448;52.034;5.158;2022-12-18T09:52:56;26.97;;;14.73;;
16669;SDS011;8448;52.034;5.158;2022-12-18T09:55:28;25.17;;;13.90;;
16669;SDS011;8448;52.034;5.158;2022-12-18T09:57:59;28.47;;;14.73;;
16669;SDS011;8448;52.034;5.158;2022-12-18T10:00:27;26.73;;;15.23;;
16669;SDS011;8448;52.034;5.158;2022-12-18T10:02:56;27.17;;;14.67;;
16669;SDS011;8448;52.034;5.158;2022-12-18T10:05:29;28.70;;;14.93;;
16669;SDS011;8448;52.034;5.158;2022-12-18T10:08:04;27.27;;;14.20;;
16669;SDS011;8448;52.034;5.158;2022-12-18T10:10:36;31.90;;;14.67;;
16669;SDS011;8448;52.034;5.158;2022-12-18T10:13:09;26.87;;;14.37;;
16669;SDS011;8448;52.034;5.158;2022-12-18T10:15:47;29.30;;;14.77;;
16669;SDS011;8448;52.034;5.158;2022-12-18T10:18:25;27.57;;;14.80;;
16669;SDS011;8448;52.034;5.158;2022-12-18T10:21:02;26.80;;;15.10;;
16669;SDS011;8448;52.034;5.158;2022-12-18T10:23:37;29.13;;;15.43;;
16669;SDS011;8448;52.034;5.158;2022-12-18T10:26:10;30.83;;;14.93;;
16669;SDS011;8448;52.034;5.158;2022-12-18T10:28:38;26.50;;;14.70;;
16669;SDS011;8448;52.034;5.158;2022-12-18T10:31:06;30.40;;;15.40;;
16669;SDS011;8448;52.034;5.158;2022-12-18T10:33:34;27.93;;;15.00;;
16669;SDS011;8448;52.034;5.158;2022-12-18T10:36:01;28.00;;;15.70;;
16669;SDS011;8448;52.034;5.158;2022-12-18T10:38:30;28.30;;;15.13;;
16669;SDS011;8448;52.034;5.158;2022-12-18T10:41:00;28.37;;;14.20;;
16669;SDS011;8448;52.034;5.158;2022-12-18T10:43:29;30.23;;;15.23;;
16669;SDS011;8448;52.034;5.158;2022-12-18T10:45:59;28.77;;;15.03;;
16669;SDS011;8448;52.034;5.158;2022-12-18T10:48:28;27.43;;;15.50;;
16669;SDS011;8448;52.034;5.158;2022-12-18T10:50:56;25.03;;;14.53;;
16669;SDS011;8448;52.034;5.158;2022-12-18T10:53:25;29.00;;;15.93;;
16669;SDS011;8448;52.034;5.158;2022-12-18T10:55:54;28.97;;;14.97;;
16669;SDS011;8448;52.034;5.158;2022-12-18T10:58:31;28.70;;;15.37;;
16669;SDS011;8448;52.034;5.158;2022-12-18T11:01:07;29.63;;;17.20;;
16669;SDS011;8448;52.034;5.158;2022-12-18T11:03:36;32.73;;;18.27;;
16669;SDS011;8448;52.034;5.158;2022-12-18T11:06:05;26.83;;;15.03;;
16669;SDS011;8448;52.034;5.158;2022-12-18T11:08:39;28.60;;;16.03;;
16669;SDS011;8448;52.034;5.158;2022-12-18T11:11:15;29.47;;;16.97;;
16669;SDS011;8448;52.034;5.158;2022-12-18T11:13:51;27.73;;;14.70;;
16669;SDS011;8448;52.034;5.158;2022-12-18T11:16:25;24.33;;;13.57;;
16669;SDS011;8448;52.034;5.158;2022-12-18T11:18:53;28.53;;;14.00;;
16669;SDS011;8448;52.034;5.158;2022-12-18T11:21:20;28.30;;;15.27;;
16669;SDS011;8448;52.034;5.158;2022-12-18T11:23:49;26.63;;;13.93;;
16669;SDS011;8448;52.034;5.158;2022-12-18T11:26:17;28.67;;;15.63;;
16669;SDS011;8448;52.034;5.158;2022-12-18T11:28:46;30.40;;;14.87;;
16669;SDS011;8448;52.034;5.158;2022-12-18T11:31:18;25.43;;;13.77;;
16669;SDS011;8448;52.034;5.158;2022-12-18T11:33:50;26.53;;;14.13;;
16669;SDS011;8448;52.034;5.158;2022-12-18T11:36:25;27.97;;;14.63;;
16669;SDS011;8448;52.034;5.158;2022-12-18T11:38:55;27.03;;;14.00;;
16669;SDS011;8448;52.034;5.158;2022-12-18T11:41:28;28.70;;;14.00;;
16669;SDS011;8448;52.034;5.158;2022-12-18T11:44:13;28.30;;;14.87;;
16669;SDS011;8448;52.034;5.158;2022-12-18T11:46:45;34.43;;;19.13;;
16669;SDS011;8448;52.034;5.158;2022-12-18T11:49:17;28.63;;;15.63;;
16669;SDS011;8448;52.034;5.158;2022-12-18T11:51:47;25.80;;;14.43;;
16669;SDS011;8448;52.034;5.158;2022-12-18T11:54:18;26.10;;;15.50;;
16669;SDS011;8448;52.034;5.158;2022-12-18T11:56:46;27.60;;;14.00;;
16669;SDS011;8448;52.034;5.158;2022-12-18T11:59:18;26.93;;;15.27;;
16669;SDS011;8448;52.034;5.158;2022-12-18T12:01:51;29.87;;;16.60;;
16669;SDS011;8448;52.034;5.158;2022-12-18T12:04:28;31.10;;;16.10;;
16669;SDS011;8448;52.034;5.158;2022-12-18T12:07:33;26.63;;;14.10;;
16669;SDS011;8448;52.034;5.158;2022-12-18T12:10:09;25.10;;;14.30;;
16669;SDS011;8448;52.034;5.158;2022-12-18T12:12:50;28.73;;;14.50;;
16669;SDS011;8448;52.034;5.158;2022-12-18T12:15:25;25.27;;;14.57;;
16669;SDS011;8448;52.034;5.158;2022-12-18T12:17:58;27.07;;;14.53;;
16669;SDS011;8448;52.034;5.158;2022-12-18T12:20:35;29.37;;;15.23;;
16669;SDS011;8448;52.034;5.158;2022-12-18T12:23:12;26.73;;;15.17;;
16669;SDS011;8448;52.034;5.158;2022-12-18T12:25:43;28.60;;;16.03;;
16669;SDS011;8448;52.034;5.158;2022-12-18T12:28:16;25.17;;;14.50;;
16669;SDS011;8448;52.034;5.158;2022-12-18T12:30:53;28.43;;;15.23;;
16669;SDS011;8448;52.034;5.158;2022-12-18T12:33:28;27.27;;;14.97;;
16669;SDS011;8448;52.034;5.158;2022-12-18T12:36:05;27.57;;;15.73;;
16669;SDS011;8448;52.034;5.158;2022-12-18T12:38:37;28.90;;;15.83;;
16669;SDS011;8448;52.034;5.158;2022-12-18T12:41:12;27.80;;;14.63;;
16669;SDS011;8448;52.034;5.158;2022-12-18T12:43:55;28.47;;;15.43;;
16669;SDS011;8448;52.034;5.158;2022-12-18T12:46:25;28.50;;;16.03;;
16669;SDS011;8448;52.034;5.158;2022-12-18T12:48:52;28.10;;;15.07;;
16669;SDS011;8448;52.034;5.158;2022-12-18T12:51:22;26.80;;;14.40;;
16669;SDS011;8448;52.034;5.158;2022-12-18T12:53:51;27.67;;;15.13;;
16669;SDS011;8448;52.034;5.158;2022-12-18T12:56:21;28.07;;;15.43;;
16669;SDS011;8448;52.034;5.158;2022-12-18T12:58:55;28.17;;;15.10;;
16669;SDS011;8448;52.034;5.158;2022-12-18T13:01:32;28.03;;;15.00;;
16669;SDS011;8448;52.034;5.158;2022-12-18T13:04:03;29.27;;;15.07;;
16669;SDS011;8448;52.034;5.158;2022-12-18T13:06:42;30.87;;;16.93;;
16669;SDS011;8448;52.034;5.158;2022-12-18T13:09:12;27.97;;;14.90;;
16669;SDS011;8448;52.034;5.158;2022-12-18T13:11:40;27.30;;;15.23;;
16669;SDS011;8448;52.034;5.158;2022-12-18T13:14:29;27.23;;;14.23;;
16669;SDS011;8448;52.034;5.158;2022-12-18T13:17:15;28.47;;;14.57;;
16669;SDS011;8448;52.034;5.158;2022-12-18T13:19:49;30.73;;;14.90;;
16669;SDS011;8448;52.034;5.158;2022-12-18T13:22:21;27.50;;;14.23;;
16669;SDS011;8448;52.034;5.158;2022-12-18T13:24:50;26.67;;;14.67;;
16669;SDS011;8448;52.034;5.158;2022-12-18T13:36:15;27.77;;;14.90;;
16669;SDS011;8448;52.034;5.158;2022-12-18T13:41:52;29.40;;;15.00;;
16669;SDS011;8448;52.034;5.158;2022-12-18T13:44:30;26.80;;;14.80;;
16669;SDS011;8448;52.034;5.158;2022-12-18T13:46:59;28.43;;;15.30;;
16669;SDS011;8448;52.034;5.158;2022-12-18T13:49:30;24.37;;;13.77;;
16669;SDS011;8448;52.034;5.158;2022-12-18T13:52:14;26.97;;;14.47;;
16669;SDS011;8448;52.034;5.158;2022-12-18T13:54:43;26.03;;;14.37;;
16669;SDS011;8448;52.034;5.158;2022-12-18T13:57:25;26.07;;;14.40;;
16669;SDS011;8448;52.034;5.158;2022-12-18T13:59:53;28.90;;;15.40;;
16669;SDS011;8448;52.034;5.158;2022-12-18T14:02:21;29.57;;;14.97;;
16669;SDS011;8448;52.034;5.158;2022-12-18T14:04:51;27.00;;;15.07;;
16669;SDS011;8448;52.034;5.158;2022-12-18T14:07:19;30.73;;;15.37;;
16669;SDS011;8448;52.034;5.158;2022-12-18T14:09:49;27.43;;;14.53;;
16669;SDS011;8448;52.034;5.158;2022-12-18T14:12:18;27.50;;;14.70;;
16669;SDS011;8448;52.034;5.158;2022-12-18T14:15:09;26.80;;;14.50;;
16669;SDS011;8448;52.034;5.158;2022-12-18T14:17:46;29.73;;;14.60;;
16669;SDS011;8448;52.034;5.158;2022-12-18T14:20:15;29.13;;;15.27;;
16669;SDS011;8448;52.034;5.158;2022-12-18T14:22:42;26.93;;;15.07;;
16669;SDS011;8448;52.034;5.158;2022-12-18T14:25:15;29.93;;;14.57;;
16669;SDS011;8448;52.034;5.158;2022-12-18T14:27:44;26.07;;;14.33;;
16669;SDS011;8448;52.034;5.158;2022-12-18T14:30:25;27.53;;;14.57;;
16669;SDS011;8448;52.034;5.158;2022-12-18T14:33:00;26.73;;;15.03;;
16669;SDS011;8448;52.034;5.158;2022-12-18T14:35:33;29.93;;;16.73;;
16669;SDS011;8448;52.034;5.158;2022-12-18T14:40:53;58.33;;;26.30;;
16669;SDS011;8448;52.034;5.158;2022-12-18T14:43:25;44.23;;;21.53;;
16669;SDS011;8448;52.034;5.158;2022-12-18T14:45:53;104.03;;;43.57;;
16669;SDS011;8448;52.034;5.158;2022-12-18T14:48:21;30.13;;;16.87;;
16669;SDS011;8448;52.034;5.158;2022-12-18T14:50:58;33.80;;;19.20;;
16669;SDS011;8448;52.034;5.158;2022-12-18T14:53:34;34.17;;;18.00;;
16669;SDS011;8448;52.034;5.158;2022-12-18T14:56:03;30.53;;;17.33;;
16669;SDS011;8448;52.034;5.158;2022-12-18T14:58:43;30.17;;;16.83;;
16669;SDS011;8448;52.034;5.158;2022-12-18T15:01:17;33.40;;;17.63;;
16669;SDS011;8448;52.034;5.158;2022-12-18T15:03:45;33.33;;;17.67;;
16669;SDS011;8448;52.034;5.158;2022-12-18T15:06:18;33.13;;;17.60;;
16669;SDS011;8448;52.034;5.158;2022-12-18T15:08:51;31.93;;;16.20;;